createdAt,value
2018-08-20T00:01:23.812Z,102069.37
2018-08-20T00:04:27.174Z,102066.65
2018-08-20T00:07:30.464Z,102066.39
2018-08-20T00:10:33.766Z,102061.93
2018-08-20T00:13:37.059Z,102061.77
2018-08-20T00:16:40.522Z,102065.68
2018-08-20T00:19:43.807Z,102068.13
2018-08-20T00:22:47.179Z,102066.57
2018-08-20T00:25:50.862Z,102066.30
2018-08-20T00:28:54.268Z,102060.42
2018-08-20T00:31:57.571Z,102060.36
2018-08-20T00:35:01.711Z,102061.47
2018-08-20T00:38:04.986Z,102062.46
2018-08-20T00:41:08.598Z,102068.14
2018-08-20T00:44:15.089Z,102070.66
2018-08-20T00:47:19.178Z,102068.73
2018-08-20T00:50:22.744Z,102068.57
2018-08-20T00:53:26.079Z,102061.20
2018-08-20T00:56:30.134Z,102064.25
2018-08-20T00:59:34.652Z,102068.55
2018-08-20T01:02:37.914Z,102071.25
2018-08-20T01:05:41.650Z,102070.44
2018-08-20T01:08:44.930Z,102074.67
2018-08-20T01:11:48.220Z,102069.49
2018-08-20T01:14:52.522Z,102074.54
2018-08-20T01:17:55.889Z,102071.51
2018-08-20T01:21:00.063Z,102068.29
2018-08-20T01:24:03.370Z,102069.16
2018-08-20T01:27:06.528Z,102066.35
2018-08-20T01:30:09.931Z,102064.22
2018-08-20T01:33:15.630Z,102061.09
2018-08-20T01:36:19.126Z,102065.57
2018-08-20T01:39:22.523Z,102066.88
2018-08-20T01:42:25.801Z,102069.53
2018-08-20T01:45:29.813Z,102069.72
2018-08-20T01:48:33.617Z,102074.22
2018-08-20T01:51:41.216Z,102073.06
2018-08-20T01:54:44.504Z,102073.13
2018-08-20T01:57:48.035Z,102073.13
2018-08-20T02:00:51.618Z,102071.44
2018-08-20T02:03:55.066Z,102070.10
2018-08-20T02:07:00.695Z,102072.86
2018-08-20T02:10:04.598Z,102076.56
2018-08-20T02:13:08.666Z,102070.16
2018-08-20T02:16:12.565Z,102071.34
2018-08-20T02:19:15.799Z,102075.84
2018-08-20T02:22:19.091Z,102074.00
2018-08-20T02:25:22.958Z,102075.54
2018-08-20T02:28:26.273Z,102083.82
2018-08-20T02:31:30.128Z,102080.27
2018-08-20T02:34:33.851Z,102083.14
2018-08-20T02:37:45.124Z,102078.04
2018-08-20T02:40:49.101Z,102079.59
2018-08-20T02:43:52.454Z,102080.17
2018-08-20T02:46:55.921Z,102071.80
2018-08-20T02:50:00.465Z,102071.07
2018-08-20T02:53:03.639Z,102071.84
2018-08-20T02:56:07.027Z,102072.02
2018-08-20T02:59:10.871Z,102071.41
2018-08-20T03:02:14.143Z,102074.80
2018-08-20T03:05:17.443Z,102073.72
2018-08-20T03:08:20.759Z,102073.11
2018-08-20T03:11:24.062Z,102074.40
2018-08-20T03:14:27.334Z,102068.74
2018-08-20T03:17:31.179Z,102072.18
2018-08-20T03:20:34.689Z,102072.49
2018-08-20T03:23:37.985Z,102076.69
2018-08-20T03:26:41.383Z,102081.43
2018-08-20T03:29:44.691Z,102078.98
2018-08-20T03:32:47.994Z,102085.60
2018-08-20T03:35:51.780Z,102083.33
2018-08-20T03:38:55.130Z,102089.76
2018-08-20T03:41:58.327Z,102081.73
2018-08-20T03:45:02.846Z,102077.83
2018-08-20T03:48:06.084Z,102079.40
2018-08-20T03:51:09.613Z,102070.25
2018-08-20T03:54:12.915Z,102072.37
2018-08-20T03:57:16.064Z,102075.39
2018-08-20T04:00:23.709Z,102067.20
2018-08-20T04:03:26.964Z,102068.21
2018-08-20T04:06:30.786Z,102069.87
2018-08-20T04:09:35.415Z,102065.61
2018-08-20T04:12:38.708Z,102076.77
2018-08-20T04:15:42.317Z,102078.09
2018-08-20T04:18:45.620Z,102076.09
2018-08-20T04:21:49.121Z,102077.46
2018-08-20T04:24:53.373Z,102073.74
2018-08-20T04:27:57.640Z,102065.69
2018-08-20T04:31:01.613Z,102066.96
2018-08-20T04:34:04.812Z,102064.35
2018-08-20T04:37:08.544Z,102073.24
2018-08-20T04:40:11.763Z,102071.90
2018-08-20T04:43:15.069Z,102076.98
2018-08-20T04:46:18.326Z,102070.53
2018-08-20T04:49:21.783Z,102074.32
2018-08-20T04:52:25.099Z,102082.88
2018-08-20T04:55:28.476Z,102079.65
2018-08-20T04:58:32.907Z,102080.65
2018-08-20T05:01:36.142Z,102085.06
2018-08-20T05:04:39.539Z,102085.70
2018-08-20T05:07:42.972Z,102081.87
2018-08-20T05:10:46.596Z,102088.55
2018-08-20T05:13:50.019Z,102091.16
2018-08-20T05:16:53.286Z,102093.49
2018-08-20T05:19:56.712Z,102091.44
2018-08-20T05:23:00.160Z,102091.96
2018-08-20T05:26:03.348Z,102094.84
2018-08-20T05:29:06.812Z,102098.89
2018-08-20T05:32:10.069Z,102103.64
2018-08-20T05:35:13.478Z,102105.40
2018-08-20T05:38:16.699Z,102099.72
2018-08-20T05:41:20.386Z,102096.13
2018-08-20T05:44:23.940Z,102093.59
2018-08-20T05:47:27.340Z,102093.44
2018-08-20T05:50:31.216Z,102091.49
2018-08-20T05:53:34.816Z,102093.99
2018-08-20T05:56:38.161Z,102096.28
2018-08-20T05:59:41.541Z,102101.31
2018-08-20T06:02:46.627Z,102098.60
2018-08-20T06:05:50.028Z,102100.16
2018-08-20T06:08:53.556Z,102102.83
2018-08-20T06:11:56.948Z,102112.66
2018-08-20T06:15:00.335Z,102115.96
2018-08-20T06:18:03.939Z,102117.42
2018-08-20T06:21:07.701Z,102118.11
2018-08-20T06:24:11.120Z,102127.09
2018-08-20T06:27:14.344Z,102130.61
2018-08-20T06:30:18.660Z,102130.27
2018-08-20T06:33:23.946Z,102135.78
2018-08-20T06:36:27.414Z,102136.47
2018-08-20T06:39:30.821Z,102135.03
2018-08-20T06:42:34.285Z,102137.18
2018-08-20T06:45:37.527Z,102143.20
2018-08-20T06:48:40.831Z,102143.83
2018-08-20T06:51:44.173Z,102145.09
2018-08-20T06:54:47.488Z,102139.49
2018-08-20T06:57:50.692Z,102145.00
2018-08-20T07:00:54.026Z,102149.04
2018-08-20T07:03:57.305Z,102149.94
2018-08-20T07:07:01.628Z,102151.89
2018-08-20T07:10:06.699Z,102155.55
2018-08-20T07:13:22.444Z,102152.26
2018-08-20T07:16:25.898Z,102155.53
2018-08-20T07:19:29.245Z,102153.14
2018-08-20T07:22:33.543Z,102154.36
2018-08-20T07:25:36.840Z,102154.99
2018-08-20T07:28:40.160Z,102153.17
2018-08-20T07:31:43.449Z,102149.64
2018-08-20T07:34:47.191Z,102151.09
2018-08-20T07:37:50.460Z,102156.54
2018-08-20T07:40:53.806Z,102154.81
2018-08-20T07:43:59.220Z,102157.54
2018-08-20T07:47:03.481Z,102152.15
2018-08-20T07:50:06.920Z,102151.16
2018-08-20T07:53:10.078Z,102152.01
2018-08-20T07:56:13.425Z,102148.64
2018-08-20T07:59:16.818Z,102152.95
2018-08-20T08:02:20.171Z,102157.22
2018-08-20T08:05:23.389Z,102154.72
2018-08-20T08:08:26.588Z,102150.53
2018-08-20T08:11:29.928Z,102152.43
2018-08-20T08:14:33.286Z,102148.66
2018-08-20T08:17:36.619Z,102144.95
2018-08-20T08:20:39.876Z,102142.76
2018-08-20T08:23:43.107Z,102139.81
2018-08-20T08:26:46.317Z,102140.29
2018-08-20T08:29:49.686Z,102145.63
2018-08-20T08:32:52.990Z,102145.23
2018-08-20T08:35:56.306Z,102145.86
2018-08-20T08:38:59.605Z,102139.70
2018-08-20T08:42:03.935Z,102139.26
2018-08-20T08:45:09.998Z,102138.01
2018-08-20T08:48:13.215Z,102134.05
2018-08-20T08:51:27.770Z,102123.98
2018-08-20T08:54:31.810Z,102123.52
2018-08-20T08:57:35.541Z,102114.33
2018-08-20T09:00:38.984Z,102115.24
2018-08-20T09:03:42.238Z,102117.65
2018-08-20T09:06:45.514Z,102117.20
2018-08-20T09:09:48.834Z,102118.51
2018-08-20T09:12:53.093Z,102117.81
2018-08-20T09:15:56.366Z,102112.99
2018-08-20T09:18:59.793Z,102106.37
2018-08-20T09:22:03.468Z,102103.37
2018-08-20T09:25:12.097Z,102096.52
2018-08-20T09:28:15.928Z,102101.56
2018-08-20T09:31:19.225Z,102097.82
2018-08-20T09:34:22.620Z,102100.77
2018-08-20T09:37:25.904Z,102103.38
2018-08-20T09:40:29.199Z,102103.77
2018-08-20T09:43:33.213Z,102100.94
2018-08-20T09:46:36.496Z,102097.39
2018-08-20T09:49:39.802Z,102103.41
2018-08-20T09:52:43.646Z,102099.19
2018-08-20T09:55:47.015Z,102092.29
2018-08-20T09:58:50.356Z,102090.50
2018-08-20T10:01:53.699Z,102086.09
2018-08-20T10:04:57.319Z,102081.90
2018-08-20T10:08:01.748Z,102087.37
2018-08-20T10:11:05.055Z,102088.23
2018-08-20T10:14:08.378Z,102081.24
2018-08-20T10:17:11.731Z,102080.54
2018-08-20T10:20:15.824Z,102076.36
2018-08-20T10:23:27.279Z,102065.71
2018-08-20T10:26:31.667Z,102062.95
2018-08-20T10:29:38.337Z,102059.89
2018-08-20T10:32:42.022Z,102058.06
2018-08-20T10:35:45.417Z,102057.91
2018-08-20T10:38:48.884Z,102055.01
2018-08-20T10:41:52.287Z,102046.66
2018-08-20T10:45:02.098Z,102046.51
2018-08-20T10:48:05.839Z,102051.25
2018-08-20T10:51:09.267Z,102047.72
2018-08-20T10:54:12.656Z,102040.33
2018-08-20T10:57:16.005Z,102042.11
2018-08-20T11:00:19.320Z,102044.30
2018-08-20T11:03:22.611Z,102042.46
2018-08-20T11:06:27.036Z,102040.87
2018-08-20T11:09:30.926Z,102040.63
2018-08-20T11:12:34.207Z,102041.09
2018-08-20T11:15:37.527Z,102039.14
2018-08-20T11:18:40.873Z,102033.86
2018-08-20T11:21:44.009Z,102033.96
2018-08-20T11:24:47.259Z,102031.59
2018-08-20T11:27:50.542Z,102031.88
2018-08-20T11:30:54.743Z,102025.81
2018-08-20T11:33:58.944Z,102027.27
2018-08-20T11:37:02.975Z,102026.41
2018-08-20T11:40:06.689Z,102026.54
2018-08-20T11:43:10.019Z,102017.96
2018-08-20T11:46:13.238Z,102015.62
2018-08-20T11:49:16.616Z,102014.40
2018-08-20T11:52:20.043Z,102015.19
2018-08-20T11:55:23.355Z,102012.84
2018-08-20T11:58:26.615Z,102015.81
2018-08-20T12:01:30.077Z,102009.91
2018-08-20T12:04:33.521Z,102006.09
2018-08-20T12:07:37.002Z,102003.26
2018-08-20T12:10:40.386Z,102006.37
2018-08-20T12:13:43.763Z,102003.65
2018-08-20T12:16:47.192Z,102006.05
2018-08-20T12:19:50.602Z,102007.10
2018-08-20T12:22:53.867Z,102008.95
2018-08-20T12:25:57.159Z,102004.80
2018-08-20T12:29:00.545Z,102007.65
2018-08-20T12:32:04.011Z,102003.84
2018-08-20T12:35:08.103Z,102011.46
2018-08-20T12:38:11.335Z,102008.48
2018-08-20T12:41:14.772Z,102005.79
2018-08-20T12:44:19.096Z,102006.97
2018-08-20T12:47:22.408Z,102005.60
2018-08-20T12:50:25.783Z,102008.77
2018-08-20T12:53:28.960Z,102001.13
2018-08-20T12:56:33.437Z,102009.47
2018-08-20T12:59:36.917Z,102007.62
2018-08-20T13:02:40.243Z,102007.87
2018-08-20T13:05:43.867Z,102008.95
2018-08-20T13:08:48.078Z,102010.31
2018-08-20T13:11:51.391Z,102001.79
2018-08-20T13:14:54.785Z,102004.99
2018-08-20T13:17:58.103Z,102002.16
2018-08-20T13:21:02.130Z,101999.33
2018-08-20T13:24:05.478Z,101999.45
2018-08-20T13:27:08.854Z,101998.33
2018-08-20T13:30:12.298Z,101992.19
2018-08-20T13:33:15.539Z,101991.89
2018-08-20T13:36:18.927Z,101980.75
2018-08-20T13:39:22.289Z,101977.76
2018-08-20T13:42:26.465Z,101974.84
2018-08-20T13:45:29.744Z,101967.13
2018-08-20T13:48:33.456Z,101966.31
2018-08-20T13:51:36.780Z,101965.85
2018-08-20T13:54:40.052Z,101964.70
2018-08-20T13:57:46.236Z,101963.63
2018-08-20T14:00:49.528Z,101959.98
2018-08-20T14:03:52.878Z,101953.34
2018-08-20T14:06:56.167Z,101948.83
2018-08-20T14:09:59.536Z,101948.35
2018-08-20T14:13:04.613Z,101946.06
2018-08-20T14:16:07.930Z,101954.36
2018-08-20T14:19:11.156Z,101951.95
2018-08-20T14:22:14.443Z,101946.01
2018-08-20T14:25:17.822Z,101945.78
2018-08-20T14:28:21.082Z,101948.94
2018-08-20T14:31:24.355Z,101945.47
2018-08-20T14:34:28.014Z,101943.59
2018-08-20T14:37:31.905Z,101937.39
2018-08-20T14:40:35.252Z,101911.83
2018-08-20T14:43:38.510Z,101936.44
2018-08-20T14:46:41.952Z,101932.40
2018-08-20T14:49:45.227Z,101937.24
2018-08-20T14:52:48.455Z,101926.31
2018-08-20T14:55:52.029Z,101923.87
2018-08-20T14:58:55.370Z,101918.27
2018-08-20T15:01:58.791Z,101917.82
2018-08-20T15:05:03.446Z,101920.97
2018-08-20T15:08:06.742Z,101918.65
2018-08-20T15:11:10.175Z,101916.00
2018-08-20T15:14:13.548Z,101914.68
2018-08-20T15:17:16.772Z,101910.09
2018-08-20T15:20:20.060Z,101910.77
2018-08-20T15:23:23.468Z,101905.40
2018-08-20T15:26:26.844Z,101905.33
2018-08-20T15:29:30.162Z,101909.56
2018-08-20T15:32:34.041Z,101907.11
2018-08-20T15:35:37.390Z,101909.14
2018-08-20T15:38:40.675Z,101898.54
2018-08-20T15:41:44.279Z,101904.18
2018-08-20T15:44:47.653Z,101904.31
2018-08-20T15:47:50.972Z,101897.67
2018-08-20T15:50:54.481Z,101886.56
2018-08-20T15:53:57.873Z,101888.79
2018-08-20T15:57:02.197Z,101892.46
2018-08-20T16:00:06.827Z,101894.40
2018-08-20T16:03:10.086Z,101898.02
2018-08-20T16:06:14.427Z,101892.40
2018-08-20T16:09:17.613Z,101888.03
2018-08-20T16:12:21.043Z,101888.22
2018-08-20T16:15:24.259Z,101885.36
2018-08-20T16:18:27.483Z,101888.60
2018-08-20T16:21:31.239Z,101892.88
2018-08-20T16:24:34.508Z,101888.23
2018-08-20T16:27:37.804Z,101888.07
2018-08-20T16:30:41.001Z,101881.45
2018-08-20T16:33:44.203Z,101883.33
2018-08-20T16:36:47.523Z,101880.79
2018-08-20T16:39:50.803Z,101878.28
2018-08-20T16:42:54.600Z,101877.80
2018-08-20T16:45:58.955Z,101874.33
2018-08-20T16:49:03.012Z,101875.92
2018-08-20T16:52:07.496Z,101875.24
2018-08-20T16:55:10.871Z,101879.59
2018-08-20T16:58:14.059Z,101877.31
2018-08-20T17:01:18.504Z,101872.65
2018-08-20T17:04:32.356Z,101873.95
2018-08-20T17:07:35.748Z,101875.00
2018-08-20T17:10:39.133Z,101873.19
2018-08-20T17:13:42.656Z,101879.25
2018-08-20T17:16:50.767Z,101875.76
2018-08-20T17:19:54.196Z,101873.77
2018-08-20T17:23:10.074Z,101877.63
2018-08-20T17:26:13.463Z,101865.17
2018-08-20T17:29:16.974Z,101868.44
2018-08-20T17:32:20.325Z,101863.94
2018-08-20T17:35:23.744Z,101867.48
2018-08-20T17:38:33.549Z,101872.99
2018-08-20T17:41:36.973Z,101877.98
2018-08-20T17:44:40.371Z,101879.18
2018-08-20T17:47:43.712Z,101881.14
2018-08-20T17:50:47.053Z,101884.71
2018-08-20T17:53:58.297Z,101883.48
2018-08-20T17:57:02.718Z,101887.23
2018-08-20T18:00:20.254Z,101891.23
2018-08-20T18:03:31.238Z,101894.93
2018-08-20T18:06:52.488Z,101896.75
2018-08-20T18:09:55.746Z,101900.51
2018-08-20T18:12:59.041Z,101899.89
2018-08-20T18:16:05.530Z,101903.17
2018-08-20T18:19:09.631Z,101905.01
2018-08-20T18:22:12.903Z,101907.44
2018-08-20T18:25:16.426Z,101914.03
2018-08-20T18:28:19.696Z,101911.81
2018-08-20T18:31:26.281Z,101913.50
2018-08-20T18:34:29.563Z,101917.14
2018-08-20T18:37:38.128Z,101923.19
2018-08-20T18:40:41.514Z,101927.61
2018-08-20T18:43:46.044Z,101925.60
2018-08-20T18:46:49.905Z,101934.10
2018-08-20T18:49:57.228Z,101935.50
2018-08-20T18:53:00.414Z,101938.60
2018-08-20T18:56:12.831Z,101953.52
2018-08-20T18:59:16.273Z,101952.69
2018-08-20T19:02:37.423Z,101956.12
2018-08-20T19:05:48.801Z,101954.59
2018-08-20T19:08:51.967Z,101956.46
2018-08-20T19:11:55.248Z,101958.82
2018-08-20T19:14:58.545Z,101962.57
2018-08-20T19:18:02.331Z,101964.94
2018-08-20T19:21:12.261Z,101962.03
2018-08-20T19:24:15.636Z,101963.17
2018-08-20T19:27:19.018Z,101961.00
2018-08-20T19:30:23.749Z,101965.80
2018-08-20T19:33:28.784Z,101963.52
2018-08-20T19:36:32.861Z,101969.10
2018-08-20T19:39:36.511Z,101967.73
2018-08-20T19:42:39.910Z,101965.11
2018-08-20T19:45:44.635Z,101973.42
2018-08-20T19:48:48.994Z,101974.18
2018-08-20T19:51:52.363Z,101978.50
2018-08-20T19:55:02.313Z,101984.61
2018-08-20T19:58:06.790Z,101975.19
2018-08-20T20:01:14.220Z,101981.54
2018-08-20T20:04:17.475Z,101977.09
2018-08-20T20:07:20.947Z,101981.24
2018-08-20T20:10:24.215Z,101988.09
2018-08-20T20:13:27.528Z,101987.22
2018-08-20T20:16:40.383Z,101995.70
2018-08-20T20:19:43.931Z,101998.72
2018-08-20T20:22:47.209Z,101997.33
2018-08-20T20:25:50.514Z,102000.45
2018-08-20T20:28:53.790Z,102003.01
2018-08-20T20:31:58.252Z,102006.67
2018-08-20T20:35:02.332Z,102011.75
2018-08-20T20:38:05.576Z,102011.60
2018-08-20T20:41:08.873Z,102014.06
2018-08-20T20:44:12.463Z,102023.89
2018-08-20T20:47:15.846Z,102028.71
2018-08-20T20:50:19.500Z,102032.59
2018-08-20T20:53:24.047Z,102043.69
2018-08-20T20:56:27.252Z,102049.87
2018-08-20T20:59:30.630Z,102049.39
2018-08-20T21:02:34.000Z,102050.69
2018-08-20T21:05:37.907Z,102053.77
2018-08-20T21:08:46.330Z,102056.06
2018-08-20T21:11:49.617Z,102064.77
2018-08-20T21:14:52.917Z,102062.66
2018-08-20T21:17:56.244Z,102061.99
2018-08-20T21:20:59.552Z,102072.27
2018-08-20T21:24:06.552Z,102072.31
2018-08-20T21:27:15.739Z,102075.19
2018-08-20T21:30:19.227Z,102077.10
2018-08-20T21:33:22.679Z,102082.18
2018-08-20T21:36:25.988Z,102082.08
2018-08-20T21:39:29.325Z,102085.58
2018-08-20T21:42:37.446Z,102089.44
2018-08-20T21:45:41.083Z,102091.67
2018-08-20T21:48:44.779Z,102089.69
2018-08-20T21:51:53.563Z,102090.81
2018-08-20T21:54:56.862Z,102094.03
2018-08-20T21:58:00.159Z,102098.58
2018-08-20T22:01:05.054Z,102090.70
2018-08-20T22:04:13.536Z,102096.97
2018-08-20T22:07:16.774Z,102096.72
2018-08-20T22:10:20.367Z,102094.94
2018-08-20T22:13:23.642Z,102103.23
2018-08-20T22:16:27.467Z,102097.63
2018-08-20T22:19:31.472Z,102104.61
2018-08-20T22:22:34.804Z,102106.42
2018-08-20T22:25:38.950Z,102108.51
2018-08-20T22:28:42.451Z,102105.83
2018-08-20T22:31:51.067Z,102108.91
2018-08-20T22:34:54.364Z,102106.50
2018-08-20T22:37:57.708Z,102111.08
2018-08-20T22:41:01.800Z,102109.58
2018-08-20T22:44:05.116Z,102112.55
2018-08-20T22:47:08.829Z,102125.15
2018-08-20T22:50:12.089Z,102121.96
2018-08-20T22:53:15.751Z,102129.59
2018-08-20T22:56:36.110Z,102128.18
2018-08-20T22:59:39.449Z,102126.17
2018-08-20T23:02:43.978Z,102129.79
2018-08-20T23:05:47.382Z,102130.67
2018-08-20T23:08:50.744Z,102131.84
2018-08-20T23:11:54.277Z,102135.50
2018-08-20T23:14:57.663Z,102132.49
2018-08-20T23:18:01.653Z,102129.26
2018-08-20T23:21:05.396Z,102134.65
2018-08-20T23:24:08.807Z,102131.72
2018-08-20T23:27:12.168Z,102132.49
2018-08-20T23:30:15.441Z,102131.56
2018-08-20T23:33:18.738Z,102137.07
2018-08-20T23:36:22.018Z,102137.10
2018-08-20T23:39:25.200Z,102135.89
2018-08-20T23:42:28.531Z,102136.68
2018-08-20T23:45:32.201Z,102131.51
2018-08-20T23:48:36.433Z,102135.56
2018-08-20T23:51:39.744Z,102130.16
2018-08-20T23:54:43.071Z,102133.69
2018-08-20T23:57:46.351Z,102133.27
